Current Conditions
Mostly Cloudy
Conditions




Pressure
30.13 (inHG) - 1020.32 (mb)
Visibility

10.0 (mimiles) - 16.1 (km)
   Temperature
48  °F
9°C
45  °F
Dewpoint
87  %
 Humidity
   Wind Speed
13  mph
11  kts
21  km/h
5.8  m/s
   Wind Direction
 350°
Due North
   Airport Data
KMYR
Location Myrtle Beach International 2 mi (3.22 km)
Metar :KMYR 131456Z 35011KT 10SM BKN010 OVC022 09/07 A3013 RMK AO2 SLP203 T00940072 58015
Fri 13th December 09:56 am
   Raw Metar Info
Raw METAR is the most common format in the world for the transmission of observational weather data. It is highly standardized through the International Civil Aviation Organization (ICAO), which allows it to be understood throughout most of the world.
   API Info
Data Provided by
https://www.checkwx.com/weather/KMYR
   © Info
CSS/SVG/PHP scripts were developed by weather34.com for use in the weather34 template © 2015-2019

Guide Info provided by Metar-Wikipedia